Time;durP1;ratioP1;P1;durP2;ratioP2;P2;SDS_P1;SDS_P2;PMS_P1;PMS_P2;Temp;Humidity;BMP_temperature;BMP_pressure;BME280_temperature;BME280_humidity;BME280_pressure;Samples;Min_cycle;Max_cycle;Signal;HPM_P1;HPM_P2
2022/07/18 00:01:56;;;;;;;2.45;0.85;;;22.40;62.90;;;;;;5091280;27;48430;-72
2022/07/18 00:04:23;;;;;;;1.13;0.63;;;22.40;62.90;;;;;;5094172;27;45435;-72
2022/07/18 00:06:50;;;;;;;2.17;0.80;;;22.40;62.80;;;;;;5093449;27;45462;-72
2022/07/18 00:09:17;;;;;;;1.48;1.00;;;22.50;62.90;;;;;;5093890;27;45501;-72
2022/07/18 00:11:44;;;;;;;1.08;0.77;;;22.50;62.90;;;;;;5089389;27;47675;-72
2022/07/18 00:14:13;;;;;;;1.92;0.80;;;22.40;63.10;;;;;;5090943;27;45333;-73
2022/07/18 00:16:40;;;;;;;0.82;0.70;;;22.40;62.80;;;;;;5093144;27;45303;-72
2022/07/18 00:19:06;;;;;;;0.90;0.70;;;22.50;62.80;;;;;;5091440;27;45483;-72
2022/07/18 00:21:33;;;;;;;1.30;0.75;;;22.50;62.90;;;;;;5091063;27;48281;-72
2022/07/18 00:24:00;;;;;;;0.85;0.60;;;22.40;62.60;;;;;;5089655;27;45463;-72
2022/07/18 00:26:27;;;;;;;2.40;1.05;;;22.40;62.90;;;;;;5092811;27;45524;-71
2022/07/18 00:28:54;;;;;;;0.93;0.70;;;22.40;62.90;;;;;;5092295;27;45478;-72
2022/07/18 00:31:22;;;;;;;1.67;0.80;;;22.40;62.90;;;;;;5088753;27;45334;-72
2022/07/18 00:33:49;;;;;;;0.82;0.70;;;22.40;63.50;;;;;;5096238;27;45457;-72
2022/07/18 00:36:16;;;;;;;0.90;0.68;;;22.40;63.10;;;;;;5090968;27;45903;-72
2022/07/18 00:38:43;;;;;;;1.48;0.60;;;22.40;64.00;;;;;;5094458;27;45343;-72
2022/07/18 00:41:09;;;;;;;2.15;1.25;;;22.40;63.20;;;;;;5087328;27;45687;-74
2022/07/18 00:43:36;;;;;;;1.85;0.90;;;22.40;63.50;;;;;;5093719;27;45215;-74
2022/07/18 00:46:07;;;;;;;1.20;0.98;;;22.30;61.20;;;;;;5106390;27;45370;-73
2022/07/18 00:48:35;;;;;;;1.73;1.10;;;22.20;60.70;;;;;;5106237;27;45398;-74
2022/07/18 00:51:02;;;;;;;2.72;0.95;;;22.10;61.00;;;;;;5109198;27;45228;-74
2022/07/18 00:53:29;;;;;;;3.30;0.85;;;21.90;60.60;;;;;;5109176;27;45203;-74
2022/07/18 00:55:56;;;;;;;2.83;1.08;;;21.90;61.30;;;;;;5109036;27;45324;-73
2022/07/18 00:58:22;;;;;;;4.53;1.27;;;21.80;60.50;;;;;;5109714;27;45189;-73
2022/07/18 01:03:35;;;;;;;2.97;1.17;;;21.70;61.40;;;;;;5109519;27;45234;-73
2022/07/18 01:06:02;;;;;;;2.13;0.98;;;21.60;61.70;;;;;;5109404;27;45209;-74
2022/07/18 01:08:29;;;;;;;1.73;1.00;;;21.60;61.50;;;;;;5109182;27;45419;-73
2022/07/18 01:10:56;;;;;;;3.30;1.23;;;21.60;61.60;;;;;;5109297;27;45375;-74
2022/07/18 01:13:23;;;;;;;2.53;0.98;;;21.60;61.40;;;;;;5109300;27;45351;-74
2022/07/18 01:15:50;;;;;;;4.00;1.30;;;21.50;61.70;;;;;;5109252;27;45301;-73
2022/07/18 01:18:17;;;;;;;1.98;1.00;;;21.40;62.30;;;;;;5109395;27;45285;-73
2022/07/18 01:20:45;;;;;;;4.45;1.40;;;21.50;62.70;;;;;;5109146;27;47424;-74
2022/07/18 01:23:12;;;;;;;1.80;0.95;;;21.40;62.70;;;;;;5108489;27;45254;-73
2022/07/18 01:26:24;;;;;;;6.13;1.20;;;21.40;63.10;;;;;;5109031;27;45351;-74
2022/07/18 01:28:51;;;;;;;1.55;0.90;;;21.30;63.30;;;;;;5109163;27;45331;-73
2022/07/18 01:31:18;;;;;;;4.05;1.10;;;21.30;63.90;;;;;;5108628;27;46579;-74
2022/07/18 01:33:45;;;;;;;1.95;1.13;;;21.20;63.80;;;;;;5109319;27;45217;-73
2022/07/18 01:36:13;;;;;;;2.95;1.20;;;21.20;63.60;;;;;;5108873;27;45275;-73
2022/07/18 01:38:39;;;;;;;4.78;1.20;;;21.20;63.90;;;;;;5108963;27;45184;-73
2022/07/18 01:41:06;;;;;;;2.30;1.05;;;21.20;64.20;;;;;;5108728;27;45232;-73
2022/07/18 01:43:34;;;;;;;2.45;1.00;;;21.20;64.40;;;;;;5108746;27;45455;-74
2022/07/18 01:46:01;;;;;;;1.02;0.85;;;21.10;64.60;;;;;;5108528;27;45324;-74
2022/07/18 01:48:28;;;;;;;1.60;0.80;;;21.10;63.70;;;;;;5108544;27;45101;-74
2022/07/18 01:50:55;;;;;;;3.85;1.02;;;21.10;63.90;;;;;;5108720;27;47620;-73
2022/07/18 01:53:24;;;;;;;2.72;1.00;;;21.10;64.80;;;;;;5108589;27;45232;-73
2022/07/18 01:55:51;;;;;;;2.58;0.90;;;21.10;64.50;;;;;;5108885;27;45252;-74
2022/07/18 01:58:17;;;;;;;3.72;1.33;;;21.10;64.30;;;;;;5108583;27;45459;-74
2022/07/18 02:04:13;;;;;;;2.83;1.13;;;21.20;63.80;;;;;;5105424;27;45266;-73
2022/07/18 02:06:40;;;;;;;1.70;0.90;;;21.30;63.40;;;;;;5108594;27;45291;-74
2022/07/18 02:09:09;;;;;;;4.78;1.10;;;21.30;63.60;;;;;;5108513;27;45158;-74
2022/07/18 02:11:36;;;;;;;1.83;1.10;;;21.30;63.10;;;;;;5108061;27;48441;-74
2022/07/18 02:14:04;;;;;;;4.00;1.10;;;21.40;63.50;;;;;;5108099;27;45205;-74
2022/07/18 02:16:30;;;;;;;2.20;1.00;;;21.30;62.50;;;;;;5108163;27;45363;-74
2022/07/18 02:18:58;;;;;;;4.82;1.30;;;21.30;62.80;;;;;;5108264;27;45119;-73
2022/07/18 02:21:24;;;;;;;2.58;1.20;;;21.30;63.50;;;;;;5108205;27;45431;-74
2022/07/18 02:23:51;;;;;;;2.65;1.05;;;21.30;62.90;;;;;;5107838;27;45293;-75
2022/07/18 02:26:19;;;;;;;3.25;1.10;;;21.30;62.90;;;;;;5108351;27;45215;-73
2022/07/18 02:28:46;;;;;;;2.08;1.10;;;21.30;63.00;;;;;;5108394;27;45474;-74
2022/07/18 02:31:13;;;;;;;3.65;1.02;;;21.30;63.00;;;;;;5107894;27;47794;-73
2022/07/18 02:33:40;;;;;;;2.60;1.13;;;21.30;62.40;;;;;;5107619;27;45499;-73
2022/07/18 02:36:07;;;;;;;3.65;1.00;;;21.30;62.60;;;;;;5108396;27;45296;-73
2022/07/18 02:38:33;;;;;;;3.55;1.20;;;21.30;62.80;;;;;;5108124;27;45378;-73
2022/07/18 02:41:00;;;;;;;3.03;1.23;;;21.30;62.70;;;;;;5107467;27;46590;-74
2022/07/18 02:43:28;;;;;;;1.63;0.70;;;21.10;63.10;;;;;;5107391;27;45216;-73
2022/07/18 02:45:55;;;;;;;2.58;1.10;;;21.10;63.60;;;;;;5107855;27;45210;-74
2022/07/18 02:48:22;;;;;;;3.97;1.10;;;21.10;63.60;;;;;;5107758;27;45538;-73
2022/07/18 02:50:49;;;;;;;2.58;1.15;;;21.20;63.50;;;;;;5107283;27;46619;-74
2022/07/18 02:53:15;;;;;;;3.47;1.20;;;21.10;63.50;;;;;;5107702;27;45238;-73
2022/07/18 02:55:42;;;;;;;2.08;1.00;;;21.20;63.70;;;;;;5107253;27;45229;-73
2022/07/18 02:58:09;;;;;;;6.57;1.40;;;21.20;63.80;;;;;;5107610;27;45565;-74
2022/07/18 03:00:59;;;;;;;2.60;1.00;;;21.20;63.80;;;;;;5107397;27;47989;-74
2022/07/18 03:03:26;;;;;;;2.28;1.00;;;21.20;63.20;;;;;;5107400;27;45289;-74
2022/07/18 03:05:53;;;;;;;2.72;1.20;;;21.20;63.10;;;;;;5107706;27;45125;-74
2022/07/18 03:08:20;;;;;;;4.60;1.30;;;21.20;63.10;;;;;;5107259;27;45246;-73
2022/07/18 03:10:47;;;;;;;1.50;0.93;;;21.10;62.90;;;;;;5106910;27;45737;-74
2022/07/18 03:13:13;;;;;;;4.03;1.10;;;21.10;62.90;;;;;;5106383;27;45221;-74
2022/07/18 03:15:41;;;;;;;4.85;1.30;;;21.10;62.40;;;;;;5107431;27;45273;-74
2022/07/18 03:18:09;;;;;;;3.80;1.00;;;21.10;63.50;;;;;;5107473;27;45212;-73
2022/07/18 03:20:36;;;;;;;2.65;1.30;;;21.00;63.50;;;;;;5106997;27;47767;-74
2022/07/18 03:23:06;;;;;;;2.13;1.10;;;21.00;63.10;;;;;;5106892;27;45297;-74
2022/07/18 03:25:33;;;;;;;2.42;0.80;;;21.00;63.00;;;;;;5107545;27;45390;-73
2022/07/18 03:28:05;;;;;;;2.08;1.13;;;21.00;63.10;;;;;;5107218;27;45570;-74
2022/07/18 03:30:32;;;;;;;5.40;1.30;;;21.00;63.50;;;;;;5106649;27;46649;-74
2022/07/18 03:32:59;;;;;;;2.28;1.00;;;21.00;63.10;;;;;;5106896;27;45169;-73
2022/07/18 03:35:27;;;;;;;2.97;1.20;;;21.00;63.30;;;;;;5107187;27;45333;-73
2022/07/18 03:37:54;;;;;;;3.03;0.90;;;20.90;63.50;;;;;;5107263;27;45602;-74
2022/07/18 03:40:21;;;;;;;5.47;0.95;;;21.00;63.50;;;;;;5106908;27;45551;-74
2022/07/18 03:42:47;;;;;;;2.83;1.00;;;20.90;63.70;;;;;;5106725;27;45128;-74
2022/07/18 03:45:14;;;;;;;3.75;1.20;;;20.90;63.40;;;;;;5107040;27;45288;-73
2022/07/18 03:47:41;;;;;;;3.53;1.10;;;20.90;63.60;;;;;;5106776;27;45529;-73
2022/07/18 03:50:09;;;;;;;1.92;0.90;;;20.90;63.60;;;;;;5106414;27;47295;-74
2022/07/18 03:52:47;;;;;;;4.72;1.17;;;20.90;63.40;;;;;;5106618;27;45158;-74
2022/07/18 03:55:14;;;;;;;4.78;1.25;;;20.90;63.40;;;;;;5106652;27;45138;-73
2022/07/18 03:57:41;;;;;;;3.03;1.10;;;20.80;64.00;;;;;;5106702;27;45506;-73
2022/07/18 04:00:09;;;;;;;5.43;1.23;;;20.80;64.00;;;;;;5106334;27;47497;-73
2022/07/18 04:02:39;;;;;;;3.85;1.20;;;20.80;64.50;;;;;;5106426;27;45168;-73
2022/07/18 04:05:13;;;;;;;4.95;1.40;;;20.90;65.10;;;;;;5094555;27;45300;-74
2022/07/18 04:07:40;;;;;;;1.92;1.20;;;20.80;65.00;;;;;;5086457;28;45293;-74
2022/07/18 04:10:10;;;;;;;2.17;1.13;;;20.80;64.90;;;;;;5086125;28;47045;-73
2022/07/18 04:12:45;;;;;;;3.28;1.35;;;20.80;65.30;;;;;;5102357;27;45163;-74
2022/07/18 04:15:12;;;;;;;5.25;1.10;;;20.70;65.40;;;;;;5106515;27;45429;-74
2022/07/18 04:17:39;;;;;;;4.75;1.35;;;20.70;65.90;;;;;;5106459;27;45526;-73
2022/07/18 04:20:06;;;;;;;2.33;1.10;;;20.70;66.10;;;;;;5106288;27;45366;-73
2022/07/18 04:22:45;;;;;;;4.05;1.13;;;20.80;65.90;;;;;;5106434;27;45232;-73
2022/07/18 04:25:13;;;;;;;3.80;1.20;;;20.80;65.60;;;;;;5109877;27;45341;-74
2022/07/18 04:28:13;;;;;;;5.88;1.25;;;20.80;65.90;;;;;;5110349;27;45412;-73
2022/07/18 04:30:40;;;;;;;2.97;1.30;;;20.80;65.90;;;;;;5109745;27;47636;-74
2022/07/18 04:33:10;;;;;;;4.05;2.03;;;20.80;65.90;;;;;;5109779;27;45134;-74
2022/07/18 04:35:37;;;;;;;3.28;1.13;;;20.80;66.20;;;;;;5109938;27;45360;-73
2022/07/18 04:38:05;;;;;;;2.80;1.00;;;20.70;66.30;;;;;;5109916;27;45581;-74
2022/07/18 04:44:00;;;;;;;5.40;1.30;;;20.80;66.40;;;;;;5106464;27;45295;-74
2022/07/18 04:46:26;;;;;;;4.60;1.13;;;20.70;66.40;;;;;;5109670;27;45230;-73
2022/07/18 04:48:53;;;;;;;4.07;1.50;;;20.70;66.80;;;;;;5109390;27;45164;-73
2022/07/18 04:51:27;;;;;;;4.85;1.65;;;20.70;66.90;;;;;;5109173;27;46847;-74
2022/07/18 04:53:54;;;;;;;2.63;1.10;;;20.60;67.10;;;;;;5109538;27;45438;-74
2022/07/18 04:56:21;;;;;;;3.85;1.30;;;20.60;67.30;;;;;;5109742;27;45308;-74
2022/07/18 04:58:48;;;;;;;8.73;1.70;;;20.70;67.30;;;;;;5110221;27;45129;-74
2022/07/18 05:01:16;;;;;;;4.80;1.70;;;20.70;67.30;;;;;;5109356;27;47712;-74
2022/07/18 05:03:43;;;;;;;5.53;1.20;;;20.60;67.30;;;;;;5109218;27;45753;-74
2022/07/18 05:06:34;;;;;;;4.07;1.38;;;20.70;67.30;;;;;;5109450;27;45193;-73
2022/07/18 05:09:01;;;;;;;8.10;1.45;;;20.70;66.80;;;;;;5109149;27;45400;-74
2022/07/18 05:11:28;;;;;;;3.08;1.40;;;20.70;66.80;;;;;;5109320;27;47381;-73
2022/07/18 05:13:55;;;;;;;2.90;1.33;;;20.80;66.60;;;;;;5109154;27;45292;-74
2022/07/18 05:16:23;;;;;;;2.55;1.33;;;20.70;66.20;;;;;;5109168;27;45277;-74
2022/07/18 05:18:50;;;;;;;4.25;1.30;;;20.80;66.30;;;;;;5108981;27;45176;-74
2022/07/18 05:21:23;;;;;;;3.63;1.27;;;20.80;66.00;;;;;;5109125;27;45548;-74
2022/07/18 05:23:50;;;;;;;1.98;1.10;;;20.80;65.60;;;;;;5109110;27;45147;-74
2022/07/18 05:26:17;;;;;;;3.00;1.25;;;20.80;66.30;;;;;;5109290;27;45247;-74
2022/07/18 05:28:44;;;;;;;3.33;1.17;;;20.80;66.00;;;;;;5108917;27;45611;-74
2022/07/18 05:31:10;;;;;;;2.55;1.10;;;20.80;65.60;;;;;;5108688;27;47625;-74
2022/07/18 05:33:39;;;;;;;5.10;1.30;;;20.90;65.60;;;;;;5108694;27;45230;-74
2022/07/18 05:36:06;;;;;;;2.25;1.05;;;20.90;65.70;;;;;;5107531;27;45383;-74
2022/07/18 05:38:33;;;;;;;8.15;1.00;;;20.90;65.70;;;;;;5109068;27;45223;-73
2022/07/18 05:41:00;;;;;;;2.88;1.20;;;20.90;65.90;;;;;;5108489;27;47546;-74
2022/07/18 05:43:26;;;;;;;6.18;1.27;;;20.90;65.80;;;;;;5108855;27;45228;-74
2022/07/18 05:45:53;;;;;;;2.33;1.13;;;21.00;65.70;;;;;;5108831;27;45216;-74
2022/07/18 05:49:02;;;;;;;5.82;1.40;;;21.00;65.50;;;;;;5108710;27;45539;-73
2022/07/18 05:51:31;;;;;;;4.28;1.35;;;21.10;65.70;;;;;;5108248;27;46320;-73
2022/07/18 05:53:57;;;;;;;2.20;1.08;;;21.10;65.50;;;;;;5108787;27;45238;-74
2022/07/18 05:56:24;;;;;;;3.97;1.10;;;21.30;65.90;;;;;;5108843;27;45361;-74
2022/07/18 05:58:51;;;;;;;2.03;0.90;;;21.40;65.20;;;;;;5108509;27;45623;-74
2022/07/18 06:01:19;;;;;;;1.08;0.80;;;21.50;64.40;;;;;;5108218;27;47512;-73
2022/07/18 06:03:47;;;;;;;2.00;0.88;;;21.70;64.30;;;;;;5108421;27;45224;-74
2022/07/18 06:06:13;;;;;;;1.65;0.95;;;21.70;63.90;;;;;;5108553;27;45135;-73
2022/07/18 06:08:41;;;;;;;3.88;1.00;;;21.80;64.30;;;;;;5108612;27;45082;-74
2022/07/18 06:11:09;;;;;;;2.78;0.95;;;21.90;64.10;;;;;;5108192;27;47486;-74
2022/07/18 06:13:36;;;;;;;1.90;0.80;;;21.90;63.70;;;;;;5108063;27;45549;-73
2022/07/18 06:16:03;;;;;;;1.50;0.80;;;22.00;64.70;;;;;;5108218;27;45290;-74
2022/07/18 06:18:30;;;;;;;3.00;1.02;;;22.00;63.60;;;;;;5108194;27;45523;-73
2022/07/18 06:20:57;;;;;;;2.03;1.05;;;22.00;63.30;;;;;;5108196;27;47068;-74
2022/07/18 06:23:24;;;;;;;1.35;0.70;;;22.00;63.80;;;;;;5107957;27;45364;-74
2022/07/18 06:25:52;;;;;;;2.80;0.63;;;22.00;63.80;;;;;;5108020;27;45315;-74
2022/07/18 06:28:19;;;;;;;0.70;0.60;;;22.00;63.90;;;;;;5108237;27;45126;-73
2022/07/18 06:30:46;;;;;;;1.05;0.70;;;22.00;63.80;;;;;;5107967;27;47423;-74
2022/07/18 06:33:13;;;;;;;1.33;0.90;;;22.00;64.00;;;;;;5107753;27;45257;-74
2022/07/18 06:35:40;;;;;;;1.05;0.70;;;22.10;64.30;;;;;;5108156;27;45381;-74
2022/07/18 06:38:07;;;;;;;1.20;0.77;;;22.10;64.20;;;;;;5108026;27;45454;-74
2022/07/18 06:40:34;;;;;;;1.75;0.80;;;22.10;64.20;;;;;;5107551;27;46499;-73
2022/07/18 06:43:02;;;;;;;6.20;0.93;;;22.10;64.20;;;;;;5107958;27;45241;-74
2022/07/18 06:45:29;;;;;;;1.77;0.90;;;22.10;64.30;;;;;;5107491;27;45366;-74
2022/07/18 06:47:55;;;;;;;1.35;0.70;;;22.20;64.60;;;;;;5107191;27;45209;-74
2022/07/18 06:50:22;;;;;;;3.65;0.65;;;22.20;64.40;;;;;;5095249;27;46303;-74
2022/07/18 06:52:49;;;;;;;1.77;0.80;;;22.20;64.30;;;;;;5106497;27;45197;-73
2022/07/18 06:55:16;;;;;;;1.45;0.70;;;22.20;64.50;;;;;;5106866;27;45348;-74
2022/07/18 06:57:43;;;;;;;0.85;0.68;;;22.20;64.40;;;;;;5106810;27;45438;-74
2022/07/18 07:00:14;;;;;;;0.90;0.57;;;22.20;64.40;;;;;;5106760;27;45474;-74
2022/07/18 07:03:00;;;;;;;1.00;0.70;;;22.20;64.30;;;;;;5107013;27;45253;-73
2022/07/18 07:05:26;;;;;;;3.75;1.17;;;22.30;64.40;;;;;;5107297;27;45209;-74
2022/07/18 07:07:53;;;;;;;3.53;0.80;;;22.30;64.30;;;;;;5107110;27;45386;-74
2022/07/18 07:10:20;;;;;;;1.77;0.68;;;22.30;64.40;;;;;;5106749;27;46259;-74
2022/07/18 07:12:49;;;;;;;1.95;0.85;;;22.30;64.40;;;;;;5106785;27;45245;-74
2022/07/18 07:15:20;;;;;;;0.80;0.70;;;22.30;64.30;;;;;;5106902;27;45259;-74
2022/07/18 07:17:47;;;;;;;3.53;0.85;;;22.30;64.20;;;;;;5106883;27;45395;-73
2022/07/18 07:20:17;;;;;;;0.70;0.60;;;22.30;64.30;;;;;;5099934;27;45466;-73
2022/07/18 07:22:45;;;;;;;1.77;0.73;;;22.30;64.20;;;;;;5088070;27;45376;-75
2022/07/18 07:25:12;;;;;;;0.93;0.65;;;22.30;64.20;;;;;;5105898;27;45418;-74
2022/07/18 07:27:44;;;;;;;0.77;0.60;;;22.30;64.30;;;;;;5095197;27;45450;-75
2022/07/18 07:30:13;;;;;;;1.15;0.70;;;22.30;64.10;;;;;;5091965;27;47965;-74
2022/07/18 07:32:43;;;;;;;0.95;0.60;;;22.40;64.20;;;;;;5106249;27;45275;-74
2022/07/18 07:35:12;;;;;;;1.45;0.68;;;22.40;63.90;;;;;;5106692;27;45367;-74
2022/07/18 07:37:39;;;;;;;2.25;0.90;;;22.40;63.70;;;;;;5086904;27;45629;-74
2022/07/18 07:40:07;;;;;;;1.08;0.63;;;22.40;63.60;;;;;;5085726;28;45399;-74
2022/07/18 07:42:34;;;;;;;1.20;0.60;;;22.40;63.60;;;;;;5086096;28;45263;-74
2022/07/18 07:45:00;;;;;;;1.45;0.70;;;22.40;63.60;;;;;;5086188;28;45324;-74
2022/07/18 07:47:28;;;;;;;1.23;0.60;;;22.40;63.50;;;;;;5103117;27;45754;-74
2022/07/18 07:49:57;;;;;;;1.02;0.45;;;22.40;63.50;;;;;;5087750;27;45496;-74
2022/07/18 07:52:24;;;;;;;1.23;0.80;;;22.40;63.50;;;;;;5091807;27;45372;-74
2022/07/18 07:54:51;;;;;;;0.90;0.65;;;22.40;63.50;;;;;;5106155;27;45318;-75
2022/07/18 07:57:18;;;;;;;1.05;0.60;;;22.40;64.60;;;;;;5105693;27;45225;-73
2022/07/18 07:59:44;;;;;;;0.90;0.63;;;22.40;63.60;;;;;;5092557;27;46665;-74
2022/07/18 08:02:11;;;;;;;1.30;0.77;;;22.50;63.70;;;;;;5113948;27;45355;-74
2022/07/18 08:04:38;;;;;;;0.85;0.60;;;22.40;63.60;;;;;;5106239;27;45478;-74
2022/07/18 08:07:06;;;;;;;1.63;0.80;;;22.40;63.70;;;;;;5106415;27;45440;-74
2022/07/18 08:09:33;;;;;;;0.77;0.60;;;22.40;63.90;;;;;;5105912;27;46626;-73
2022/07/18 08:12:00;;;;;;;1.08;0.70;;;22.40;63.90;;;;;;5105938;27;45307;-73
2022/07/18 08:14:27;;;;;;;0.82;0.57;;;22.40;63.90;;;;;;5106198;27;45248;-74
2022/07/18 08:16:54;;;;;;;0.85;0.40;;;22.40;64.00;;;;;;5105663;27;45225;-74
2022/07/18 08:19:20;;;;;;;1.40;0.75;;;22.40;64.00;;;;;;5105726;27;46589;-73
2022/07/18 08:21:47;;;;;;;1.55;0.80;;;22.50;64.20;;;;;;5105957;27;45285;-74
2022/07/18 08:24:15;;;;;;;1.35;0.70;;;22.50;64.30;;;;;;5094258;27;45319;-72
2022/07/18 08:26:42;;;;;;;0.77;0.73;;;22.50;64.40;;;;;;5106244;27;45495;-74
2022/07/18 08:29:09;;;;;;;2.03;0.60;;;22.50;64.40;;;;;;5105707;27;45420;-74
2022/07/18 08:31:37;;;;;;;1.73;0.80;;;22.50;64.40;;;;;;5105985;27;45269;-74
2022/07/18 08:34:21;;;;;;;0.70;0.70;;;22.50;64.50;;;;;;5106080;27;45256;-74
2022/07/18 08:36:48;;;;;;;1.35;0.68;;;22.50;64.50;;;;;;5105452;27;45488;-74
2022/07/18 08:39:16;;;;;;;2.45;0.70;;;22.50;64.50;;;;;;5089157;27;46464;-73
2022/07/18 08:41:46;;;;;;;1.15;0.70;;;22.50;64.50;;;;;;5090632;27;45356;-74
2022/07/18 08:44:13;;;;;;;1.30;0.70;;;22.50;64.50;;;;;;5102521;27;45253;-73
2022/07/18 08:46:41;;;;;;;1.00;0.88;;;22.50;64.50;;;;;;5101843;27;45621;-74
2022/07/18 08:49:08;;;;;;;1.00;0.60;;;22.50;64.50;;;;;;5104521;27;48317;-74
2022/07/18 08:51:36;;;;;;;0.40;0.40;;;22.50;64.50;;;;;;5105063;27;45440;-73
2022/07/18 08:54:03;;;;;;;1.08;0.60;;;22.50;64.50;;;;;;5105796;27;45228;-74
2022/07/18 08:56:31;;;;;;;1.50;0.80;;;22.50;64.50;;;;;;5105740;27;45209;-74
2022/07/18 08:59:02;;;;;;;0.73;0.70;;;22.50;64.60;;;;;;5105253;27;46388;-73
2022/07/18 09:01:29;;;;;;;1.40;0.70;;;22.50;64.50;;;;;;5105171;27;45216;-73
2022/07/18 09:06:44;;;;;;;2.28;0.68;;;22.50;64.50;;;;;;5105291;27;45255;-73
2022/07/18 09:09:13;;;;;;;1.02;0.55;;;22.60;64.60;;;;;;5105415;27;46617;-74
2022/07/18 09:11:50;;;;;;;1.30;0.68;;;22.60;64.70;;;;;;5108483;27;45294;-74
2022/07/18 09:14:36;;;;;;;1.73;0.55;;;22.50;64.50;;;;;;5109038;27;45239;-74
2022/07/18 09:17:06;;;;;;;1.80;0.60;;;22.50;64.50;;;;;;5109712;27;45503;-73
2022/07/18 09:19:33;;;;;;;0.60;0.60;;;22.60;64.60;;;;;;5108492;27;48306;-73
2022/07/18 09:22:16;;;;;;;1.05;0.68;;;22.60;64.60;;;;;;5108670;27;45749;-74
2022/07/18 09:24:56;;;;;;;1.48;0.80;;;22.60;64.60;;;;;;5108853;27;45331;-73
2022/07/18 09:27:46;;;;;;;0.47;0.47;;;22.60;64.70;;;;;;5109202;27;45418;-73
2022/07/18 09:30:17;;;;;;;0.98;0.63;;;22.60;64.50;;;;;;5102539;27;46583;-73
2022/07/18 09:32:46;;;;;;;1.20;0.77;;;22.60;64.60;;;;;;5108682;27;45259;-74
2022/07/18 09:35:15;;;;;;;0.77;0.70;;;22.60;65.50;;;;;;5108587;27;45363;-73
2022/07/18 09:38:03;;;;;;;2.50;0.55;;;22.60;64.60;;;;;;5108539;27;45293;-73
2022/07/18 09:40:32;;;;;;;1.10;0.70;;;22.60;64.50;;;;;;5108635;27;47438;-74
2022/07/18 09:43:02;;;;;;;0.50;0.50;;;22.60;64.30;;;;;;5108090;27;45729;-73
2022/07/18 09:45:31;;;;;;;0.82;0.65;;;22.60;64.30;;;;;;5108784;27;45347;-74
2022/07/18 09:48:04;;;;;;;1.02;0.60;;;22.50;64.20;;;;;;5108687;27;45221;-74
2022/07/18 09:50:34;;;;;;;1.25;0.70;;;22.60;64.20;;;;;;5107994;27;47529;-73
2022/07/18 09:53:10;;;;;;;0.73;0.63;;;22.60;64.10;;;;;;5108472;27;45182;-74
2022/07/18 09:55:43;;;;;;;1.35;0.47;;;22.60;64.20;;;;;;5108617;27;45255;-73
2022/07/18 09:58:12;;;;;;;1.02;0.77;;;22.60;64.00;;;;;;5108880;27;45332;-73
2022/07/18 10:00:40;;;;;;;1.05;0.50;;;22.60;64.20;;;;;;5107758;27;46601;-74
2022/07/18 10:03:08;;;;;;;1.30;0.82;;;22.60;64.20;;;;;;5108474;27;45394;-73
2022/07/18 10:05:37;;;;;;;0.80;0.68;;;22.60;64.00;;;;;;5108143;27;45190;-74
2022/07/18 10:08:06;;;;;;;1.75;0.70;;;22.60;64.00;;;;;;5108547;27;45573;-73
2022/07/18 10:10:33;;;;;;;1.70;0.77;;;22.60;63.90;;;;;;5100709;27;47350;-74
2022/07/18 10:13:02;;;;;;;0.80;0.60;;;22.60;63.60;;;;;;5087752;28;45146;-73
2022/07/18 10:15:32;;;;;;;0.98;0.63;;;22.60;63.70;;;;;;5087741;28;45192;-73
2022/07/18 10:18:00;;;;;;;1.00;0.70;;;22.60;63.70;;;;;;5087892;28;45242;-73
2022/07/18 10:20:29;;;;;;;0.82;0.73;;;22.60;63.70;;;;;;5087361;27;46083;-74
2022/07/18 10:22:59;;;;;;;0.95;0.60;;;22.60;63.50;;;;;;5087255;28;45316;-74
2022/07/18 10:25:27;;;;;;;0.50;0.50;;;22.60;64.50;;;;;;5087558;28;45186;-74
2022/07/18 10:28:01;;;;;;;0.57;0.45;;;22.60;63.50;;;;;;5087698;28;45060;-73
2022/07/18 10:30:38;;;;;;;1.30;0.63;;;22.60;63.50;;;;;;5087116;28;48612;-74
2022/07/18 10:33:39;;;;;;;0.85;0.63;;;22.60;63.30;;;;;;5087334;28;45235;-73
2022/07/18 10:36:08;;;;;;;0.73;0.50;;;22.60;63.20;;;;;;5087393;28;45263;-74
2022/07/18 10:38:35;;;;;;;1.00;0.50;;;22.60;63.10;;;;;;5087301;28;45590;-73
2022/07/18 10:41:07;;;;;;;1.45;0.63;;;22.60;63.00;;;;;;5087007;28;46321;-74
2022/07/18 10:43:37;;;;;;;0.93;0.50;;;22.60;62.90;;;;;;5087124;28;45164;-73
2022/07/18 10:46:07;;;;;;;0.75;0.50;;;22.60;62.80;;;;;;5087210;28;45399;-73
2022/07/18 10:48:56;;;;;;;0.65;0.50;;;22.60;62.90;;;;;;5086911;28;45408;-74
2022/07/18 10:51:31;;;;;;;1.48;0.55;;;22.60;63.00;;;;;;5086429;28;47834;-73
2022/07/18 10:54:15;;;;;;;0.40;0.40;;;22.60;63.20;;;;;;5086778;28;45209;-74
2022/07/18 10:57:12;;;;;;;1.02;0.60;;;22.60;62.80;;;;;;5087066;28;45174;-73
2022/07/18 11:00:01;;;;;;;0.57;0.50;;;22.60;62.90;;;;;;5087009;28;45287;-74
2022/07/18 11:02:34;;;;;;;0.60;0.52;;;22.60;62.90;;;;;;5086026;28;46836;-74
2022/07/18 11:05:01;;;;;;;0.52;0.47;;;22.60;62.90;;;;;;5083402;28;45320;-73
2022/07/18 11:07:28;;;;;;;2.90;0.70;;;22.60;62.90;;;;;;5086788;28;45360;-73
2022/07/18 11:09:55;;;;;;;0.80;0.55;;;22.60;62.80;;;;;;5086474;28;45585;-73
2022/07/18 11:12:24;;;;;;;0.60;0.60;;;22.60;62.70;;;;;;5086257;28;46439;-73
2022/07/18 11:15:10;;;;;;;0.85;0.70;;;22.60;63.60;;;;;;5086482;28;45193;-73
2022/07/18 11:18:00;;;;;;;1.05;0.60;;;22.60;62.60;;;;;;5086547;28;45262;-73
2022/07/18 11:20:29;;;;;;;1.40;0.50;;;22.60;62.50;;;;;;5086438;28;45392;-73
2022/07/18 11:22:56;;;;;;;0.90;0.40;;;22.70;62.50;;;;;;5085911;28;47555;-73
2022/07/18 11:25:26;;;;;;;1.63;0.43;;;22.60;62.40;;;;;;5086072;28;45240;-73
2022/07/18 11:27:54;;;;;;;1.10;0.60;;;22.70;62.40;;;;;;5086461;28;45292;-73
2022/07/18 11:30:22;;;;;;;0.65;0.57;;;22.60;62.40;;;;;;5086344;28;45483;-73
2022/07/18 11:32:49;;;;;;;0.70;0.50;;;22.60;62.50;;;;;;5085110;27;46556;-73
2022/07/18 11:35:22;;;;;;;0.75;0.60;;;22.60;62.50;;;;;;5086021;28;45401;-73
2022/07/18 11:37:49;;;;;;;0.85;0.55;;;22.60;62.40;;;;;;5086344;28;45331;-73
2022/07/18 11:40:17;;;;;;;0.90;0.50;;;22.60;62.80;;;;;;5086184;28;45480;-74
2022/07/18 11:42:44;;;;;;;1.48;0.80;;;22.60;62.60;;;;;;5085487;28;47702;-74
2022/07/18 11:45:13;;;;;;;0.60;0.50;;;22.70;62.80;;;;;;5085776;28;46233;-73
2022/07/18 11:47:41;;;;;;;0.68;0.55;;;22.60;62.60;;;;;;5102306;27;45451;-73
2022/07/18 11:50:08;;;;;;;0.80;0.60;;;22.60;62.60;;;;;;5106288;27;45422;-73
2022/07/18 11:52:37;;;;;;;1.02;0.40;;;22.60;62.50;;;;;;5106392;27;45340;-73
2022/07/18 11:55:05;;;;;;;0.95;0.55;;;22.70;62.80;;;;;;5106390;27;45304;-74
2022/07/18 11:57:33;;;;;;;0.60;0.50;;;22.70;62.60;;;;;;5106395;27;45316;-73
2022/07/18 12:00:01;;;;;;;0.50;0.40;;;22.70;62.70;;;;;;5106313;27;45257;-73
2022/07/18 12:02:28;;;;;;;0.77;0.65;;;22.70;62.70;;;;;;5106186;27;47293;-74
2022/07/18 12:04:55;;;;;;;0.75;0.55;;;22.70;62.50;;;;;;5106089;27;46046;-73
2022/07/18 12:07:25;;;;;;;1.70;0.40;;;22.70;62.50;;;;;;5105905;27;45256;-74
2022/07/18 12:09:53;;;;;;;0.40;0.40;;;22.60;62.60;;;;;;5106345;27;45134;-73
2022/07/18 12:12:22;;;;;;;0.85;0.50;;;22.70;62.60;;;;;;5106064;27;45327;-73
2022/07/18 12:14:57;;;;;;;1.73;0.60;;;22.70;62.40;;;;;;5106060;27;45574;-73
2022/07/18 12:17:23;;;;;;;0.90;0.52;;;22.70;62.60;;;;;;5106324;27;45343;-73
2022/07/18 12:19:50;;;;;;;0.70;0.60;;;22.60;62.40;;;;;;5106361;27;45136;-73
2022/07/18 12:22:17;;;;;;;0.65;0.65;;;22.60;62.30;;;;;;5105848;27;46417;-74
2022/07/18 12:24:56;;;;;;;0.55;0.32;;;22.70;62.40;;;;;;5105809;27;45756;-73
2022/07/18 12:27:24;;;;;;;1.38;0.68;;;22.60;62.30;;;;;;5105975;27;45340;-73
2022/07/18 12:30:02;;;;;;;0.60;0.50;;;22.60;62.40;;;;;;5106240;27;45439;-73
2022/07/18 12:32:30;;;;;;;0.60;0.50;;;22.70;63.40;;;;;;5105953;27;48335;-73
2022/07/18 12:35:04;;;;;;;1.75;0.60;;;22.70;62.30;;;;;;5105732;27;45249;-74
2022/07/18 12:37:31;;;;;;;0.82;0.60;;;22.70;62.50;;;;;;5105731;27;45257;-74
2022/07/18 12:40:00;;;;;;;0.43;0.32;;;22.70;62.50;;;;;;5106277;27;45475;-73
2022/07/18 12:42:32;;;;;;;0.50;0.50;;;22.70;62.60;;;;;;5105440;27;48249;-73
2022/07/18 12:45:00;;;;;;;0.80;0.55;;;22.70;62.40;;;;;;5108032;27;45247;-73
2022/07/18 12:47:27;;;;;;;0.40;0.40;;;22.70;62.40;;;;;;5109169;27;45189;-73
2022/07/18 12:49:54;;;;;;;1.35;0.60;;;22.70;62.50;;;;;;5109021;27;45354;-73
2022/07/18 12:52:21;;;;;;;0.50;0.40;;;22.70;62.50;;;;;;5106019;27;45372;-74
2022/07/18 12:54:49;;;;;;;0.70;0.50;;;22.70;62.50;;;;;;5109001;27;45352;-73
2022/07/18 12:57:17;;;;;;;0.70;0.70;;;22.70;62.50;;;;;;5108930;27;45427;-73
2022/07/18 12:59:44;;;;;;;0.82;0.60;;;22.70;62.80;;;;;;5109274;27;45186;-73
2022/07/18 13:02:11;;;;;;;0.63;0.43;;;22.70;62.50;;;;;;5108901;27;46722;-73
2022/07/18 13:04:38;;;;;;;0.88;0.60;;;22.70;62.40;;;;;;5108702;27;45298;-73
2022/07/18 13:07:05;;;;;;;0.47;0.47;;;22.70;62.30;;;;;;5108225;27;45368;-73
2022/07/18 13:09:32;;;;;;;1.13;0.60;;;22.70;62.00;;;;;;5109107;27;45400;-73
2022/07/18 13:11:59;;;;;;;0.93;0.50;;;22.70;63.30;;;;;;5108759;27;45311;-73